createdAt,value
2018-05-02T00:00:16.082Z,97715.81
2018-05-02T00:02:42.777Z,97719.50
2018-05-02T00:05:09.041Z,97722.97
2018-05-02T00:07:35.406Z,97722.05
2018-05-02T00:10:01.743Z,97726.53
2018-05-02T00:12:28.003Z,97723.38
2018-05-02T00:14:54.603Z,97720.66
2018-05-02T00:17:20.882Z,97727.34
2018-05-02T00:19:47.167Z,97723.06
2018-05-02T00:22:13.488Z,97721.80
2018-05-02T00:24:39.785Z,97721.59
2018-05-02T00:27:06.089Z,97720.83
2018-05-02T00:29:32.334Z,97725.28
2018-05-02T00:31:58.567Z,97716.47
2018-05-02T00:34:24.870Z,97707.37
2018-05-02T00:36:51.115Z,97711.03
2018-05-02T00:39:17.387Z,97707.41
2018-05-02T00:41:43.742Z,97704.37
2018-05-02T00:44:10.047Z,97702.24
2018-05-02T00:46:36.287Z,97703.86
2018-05-02T00:49:14.591Z,97705.28
2018-05-02T00:51:40.823Z,97709.31
2018-05-02T00:54:07.110Z,97713.91
2018-05-02T00:56:33.411Z,97717.76
2018-05-02T00:58:59.659Z,97729.43
2018-05-02T01:01:25.906Z,97724.13
2018-05-02T01:03:52.242Z,97727.20
2018-05-02T01:06:18.496Z,97727.73
2018-05-02T01:08:44.784Z,97732.53
2018-05-02T01:11:11.090Z,97729.20
2018-05-02T01:13:37.366Z,97725.75
2018-05-02T01:16:03.675Z,97726.52
2018-05-02T01:18:29.926Z,97717.19
2018-05-02T01:20:56.195Z,97725.34
2018-05-02T01:23:22.427Z,97727.08
2018-05-02T01:25:48.702Z,97728.53
2018-05-02T01:28:14.995Z,97723.00
2018-05-02T01:30:41.298Z,97723.36
2018-05-02T01:33:07.554Z,97717.88
2018-05-02T01:35:33.867Z,97713.19
2018-05-02T01:38:00.214Z,97715.73
2018-05-02T01:40:26.559Z,97718.12
2018-05-02T01:42:52.854Z,97713.09
2018-05-02T01:45:19.084Z,97713.09
2018-05-02T01:47:45.355Z,97719.51
2018-05-02T01:50:11.643Z,97712.09
2018-05-02T01:52:37.875Z,97714.16
2018-05-02T01:55:04.142Z,97719.39
2018-05-02T01:57:30.418Z,97720.97
2018-05-02T01:59:56.642Z,97721.01
2018-05-02T02:02:22.927Z,97713.09
2018-05-02T02:04:49.901Z,97713.97
2018-05-02T02:07:16.174Z,97710.55
2018-05-02T02:09:42.435Z,97713.78
2018-05-02T02:12:08.743Z,97708.48
2018-05-02T02:14:35.102Z,97718.05
2018-05-02T02:17:01.443Z,97728.92
2018-05-02T02:19:27.738Z,97727.53
2018-05-02T02:21:53.975Z,97727.88
2018-05-02T02:24:20.251Z,97729.19
2018-05-02T02:26:46.486Z,97723.39
2018-05-02T02:29:12.747Z,97728.08
2018-05-02T02:31:39.024Z,97732.88
2018-05-02T02:34:05.338Z,97731.19
2018-05-02T02:36:31.542Z,97722.03
2018-05-02T02:38:57.911Z,97715.11
2018-05-02T02:41:24.186Z,97720.76
2018-05-02T02:43:50.427Z,97713.08
2018-05-02T02:46:16.683Z,97708.62
2018-05-02T02:48:42.936Z,97707.62
2018-05-02T02:51:09.217Z,97712.00
2018-05-02T02:53:35.483Z,97707.47
2018-05-02T02:56:01.787Z,97711.58
2018-05-02T02:58:28.132Z,97707.06
2018-05-02T03:00:54.407Z,97712.67
2018-05-02T03:03:20.672Z,97707.13
2018-05-02T03:05:46.907Z,97702.98
2018-05-02T03:08:13.162Z,97702.83
2018-05-02T03:10:39.499Z,97699.21
2018-05-02T03:13:05.727Z,97688.94
2018-05-02T03:15:32.086Z,97689.09
2018-05-02T03:17:58.367Z,97689.17
2018-05-02T03:20:24.636Z,97693.09
2018-05-02T03:22:50.951Z,97692.09
2018-05-02T03:25:17.255Z,97688.55
2018-05-02T03:27:43.583Z,97690.86
2018-05-02T03:30:09.858Z,97683.31
2018-05-02T03:32:36.130Z,97678.20
2018-05-02T03:35:02.367Z,97684.42
2018-05-02T03:37:28.634Z,97683.83
2018-05-02T03:39:54.926Z,97681.42
2018-05-02T03:42:21.169Z,97681.19
2018-05-02T03:44:47.518Z,97678.54
2018-05-02T03:47:13.746Z,97682.61
2018-05-02T03:49:40.046Z,97675.16
2018-05-02T03:52:06.330Z,97681.75
2018-05-02T03:54:32.614Z,97684.44
2018-05-02T03:56:58.934Z,97685.44
2018-05-02T03:59:37.437Z,97681.86
2018-05-02T04:02:16.025Z,97683.09
2018-05-02T04:04:54.604Z,97687.95
2018-05-02T04:07:20.926Z,97691.98
2018-05-02T04:09:47.162Z,97692.53
2018-05-02T04:12:14.443Z,97694.41
2018-05-02T04:14:40.719Z,97696.70
2018-05-02T04:17:06.986Z,97691.31
2018-05-02T04:19:33.262Z,97692.50
2018-05-02T04:21:59.536Z,97701.34
2018-05-02T04:24:25.771Z,97698.43
2018-05-02T04:26:52.118Z,97705.22
2018-05-02T04:29:18.382Z,97698.67
2018-05-02T04:31:44.650Z,97693.81
2018-05-02T04:34:10.920Z,97697.39
2018-05-02T04:36:37.222Z,97696.84
2018-05-02T04:39:03.538Z,97694.77
2018-05-02T04:41:29.838Z,97691.47
2018-05-02T04:43:56.102Z,97691.24
2018-05-02T04:46:22.335Z,97684.31
2018-05-02T04:48:48.598Z,97690.86
2018-05-02T04:51:14.902Z,97695.66
2018-05-02T04:53:41.138Z,97702.60
2018-05-02T04:56:07.504Z,97699.39
2018-05-02T04:58:33.786Z,97703.68
2018-05-02T05:01:00.015Z,97704.98
2018-05-02T05:03:26.283Z,97720.11
2018-05-02T05:05:52.590Z,97720.34
2018-05-02T05:08:18.813Z,97725.74
2018-05-02T05:10:45.106Z,97728.05
2018-05-02T05:13:11.367Z,97727.34
2018-05-02T05:15:37.696Z,97724.59
2018-05-02T05:18:03.963Z,97716.53
2018-05-02T05:20:30.218Z,97706.10
2018-05-02T05:22:56.450Z,97706.66
2018-05-02T05:25:22.719Z,97712.64
2018-05-02T05:27:49.015Z,97721.91
2018-05-02T05:30:15.278Z,97725.45
2018-05-02T05:32:41.560Z,97728.45
2018-05-02T05:35:07.803Z,97729.53
2018-05-02T05:37:34.054Z,97727.92
2018-05-02T05:40:00.378Z,97725.62
2018-05-02T05:42:26.617Z,97718.45
2018-05-02T05:44:52.859Z,97721.07
2018-05-02T05:47:19.114Z,97723.70
2018-05-02T05:49:45.390Z,97722.98
2018-05-02T05:52:11.659Z,97717.91
2018-05-02T05:54:38.000Z,97714.30
2018-05-02T05:57:04.279Z,97700.64
2018-05-02T05:59:30.553Z,97705.78
2018-05-02T06:01:56.842Z,97699.08
2018-05-02T06:04:23.091Z,97699.38
2018-05-02T06:06:49.388Z,97694.34
2018-05-02T06:09:15.626Z,97687.12
2018-05-02T06:11:41.858Z,97694.41
2018-05-02T06:14:08.118Z,97690.53
2018-05-02T06:16:34.405Z,97692.06
2018-05-02T06:19:00.643Z,97687.62
2018-05-02T06:21:26.874Z,97685.28
2018-05-02T06:23:53.177Z,97678.22
2018-05-02T06:26:19.422Z,97677.41
2018-05-02T06:28:45.663Z,97677.52
2018-05-02T06:31:11.997Z,97677.81
2018-05-02T06:33:38.240Z,97675.87
2018-05-02T06:36:04.510Z,97679.73
2018-05-02T06:38:30.786Z,97678.56
2018-05-02T06:40:57.055Z,97664.89
2018-05-02T06:43:23.344Z,97654.14
2018-05-02T06:45:49.646Z,97650.42
2018-05-02T06:48:15.942Z,97653.85
2018-05-02T06:50:42.172Z,97664.39
2018-05-02T06:53:08.443Z,97660.86
2018-05-02T06:55:34.702Z,97665.91
2018-05-02T06:58:00.963Z,97666.33
2018-05-02T07:00:27.295Z,97658.37
2018-05-02T07:02:53.527Z,97649.27
2018-05-02T07:05:19.763Z,97654.40
2018-05-02T07:07:46.075Z,97662.09
2018-05-02T07:10:12.306Z,97659.32
2018-05-02T07:12:38.551Z,97649.59
2018-05-02T07:15:04.838Z,97647.99
2018-05-02T07:17:31.079Z,97650.24
2018-05-02T07:19:57.307Z,97649.77
2018-05-02T07:22:23.570Z,97653.64
2018-05-02T07:24:49.812Z,97649.60
2018-05-02T07:27:16.044Z,97643.94
2018-05-02T07:29:42.317Z,97651.72
2018-05-02T07:32:08.550Z,97653.16
2018-05-02T07:34:34.798Z,97664.02
2018-05-02T07:37:01.079Z,97664.16
2018-05-02T07:39:27.327Z,97656.08
2018-05-02T07:41:53.562Z,97661.60
2018-05-02T07:44:19.850Z,97651.84
2018-05-02T07:46:46.082Z,97654.67
2018-05-02T07:49:12.311Z,97656.25
2018-05-02T07:51:38.594Z,97654.51
2018-05-02T07:54:04.852Z,97654.71
2018-05-02T07:56:31.179Z,97663.97
2018-05-02T07:58:57.471Z,97656.53
2018-05-02T08:01:23.734Z,97657.53
2018-05-02T08:03:49.971Z,97652.37
2018-05-02T08:06:16.262Z,97653.90
2018-05-02T08:08:42.527Z,97654.33
2018-05-02T08:11:08.837Z,97645.23
2018-05-02T08:13:35.078Z,97645.57
2018-05-02T08:16:01.327Z,97648.16
2018-05-02T08:18:27.551Z,97652.84
2018-05-02T08:20:53.830Z,97645.75
2018-05-02T08:23:20.075Z,97648.86
2018-05-02T08:25:46.295Z,97646.70
2018-05-02T08:28:12.579Z,97639.70
2018-05-02T08:30:38.826Z,97645.55
2018-05-02T08:33:05.046Z,97639.30
2018-05-02T08:35:31.327Z,97631.20
2018-05-02T08:37:57.565Z,97629.45
2018-05-02T08:40:23.785Z,97624.50
2018-05-02T08:42:50.055Z,97622.75
2018-05-02T08:45:16.350Z,97621.20
2018-05-02T08:47:42.583Z,97614.84
2018-05-02T08:50:08.878Z,97616.91
2018-05-02T08:52:35.099Z,97617.95
2018-05-02T08:55:01.351Z,97618.89
2018-05-02T08:57:27.683Z,97613.42
2018-05-02T08:59:53.922Z,97613.13
2018-05-02T09:02:20.157Z,97604.16
2018-05-02T09:04:46.435Z,97603.25
2018-05-02T09:07:12.668Z,97599.04
2018-05-02T09:09:38.898Z,97590.70
2018-05-02T09:12:05.150Z,97587.78
2018-05-02T09:14:31.392Z,97585.05
2018-05-02T09:16:57.631Z,97577.69
2018-05-02T09:19:23.929Z,97577.37
2018-05-02T09:21:50.226Z,97577.16
2018-05-02T09:24:16.459Z,97580.80
2018-05-02T09:26:42.762Z,97578.27
2018-05-02T09:29:08.970Z,97571.73
2018-05-02T09:31:35.238Z,97563.55
2018-05-02T09:34:01.502Z,97558.12
2018-05-02T09:36:27.731Z,97553.29
2018-05-02T09:38:53.981Z,97552.11
2018-05-02T09:41:20.255Z,97547.63
2018-05-02T09:43:46.503Z,97549.64
2018-05-02T09:46:12.742Z,97545.27
2018-05-02T09:48:39.103Z,97536.69
2018-05-02T09:51:05.327Z,97543.94
2018-05-02T09:53:31.587Z,97542.45
2018-05-02T09:55:57.862Z,97538.28
2018-05-02T09:58:24.114Z,97531.39
2018-05-02T10:00:50.337Z,97528.88
2018-05-02T10:03:16.618Z,97522.24
2018-05-02T10:05:42.846Z,97518.25
2018-05-02T10:08:09.095Z,97519.47
2018-05-02T10:10:35.383Z,97520.31
2018-05-02T10:13:01.623Z,97530.66
2018-05-02T10:15:27.895Z,97522.36
2018-05-02T10:17:54.172Z,97514.40
2018-05-02T10:20:20.415Z,97507.59
2018-05-02T10:22:46.678Z,97516.22
2018-05-02T10:25:12.943Z,97519.94
2018-05-02T10:27:39.214Z,97510.94
2018-05-02T10:30:05.475Z,97512.13
2018-05-02T10:32:31.755Z,97505.27
2018-05-02T10:34:57.990Z,97511.42
2018-05-02T10:37:24.219Z,97515.77
2018-05-02T10:39:50.498Z,97513.15
2018-05-02T10:42:16.732Z,97507.26
2018-05-02T10:44:42.986Z,97488.13
2018-05-02T10:47:09.286Z,97469.64
2018-05-02T10:49:35.533Z,97468.61
2018-05-02T10:52:01.824Z,97467.80
2018-05-02T10:54:28.095Z,97464.28
2018-05-02T10:56:54.387Z,97466.21
2018-05-02T10:59:27.727Z,97461.88
2018-05-02T11:01:53.970Z,97451.70
2018-05-02T11:04:20.194Z,97449.95
2018-05-02T11:06:46.502Z,97438.18
2018-05-02T11:09:12.747Z,97427.81
2018-05-02T11:11:38.984Z,97427.20
2018-05-02T11:14:05.286Z,97424.05
2018-05-02T11:16:31.635Z,97416.73
2018-05-02T11:18:57.867Z,97426.74
2018-05-02T11:21:24.190Z,97417.43
2018-05-02T11:23:50.461Z,97419.97
2018-05-02T11:26:16.690Z,97414.19
2018-05-02T11:28:42.966Z,97422.36
2018-05-02T11:31:09.194Z,97423.27
2018-05-02T11:33:35.426Z,97419.29
2018-05-02T11:36:01.682Z,97415.55
2018-05-02T11:38:27.918Z,97419.16
2018-05-02T11:40:54.158Z,97415.95
2018-05-02T11:43:20.462Z,97408.92
2018-05-02T11:45:46.771Z,97422.21
2018-05-02T11:48:13.082Z,97419.17
2018-05-02T11:50:39.472Z,97416.17
2018-05-02T11:53:05.715Z,97418.77
2018-05-02T11:55:31.987Z,97407.71
2018-05-02T11:57:58.346Z,97405.88
2018-05-02T12:00:24.643Z,97407.02
2018-05-02T12:02:50.889Z,97403.52
2018-05-02T12:05:17.175Z,97399.97
2018-05-02T12:07:43.409Z,97392.64
2018-05-02T12:10:09.638Z,97403.85
2018-05-02T12:12:35.938Z,97405.42
2018-05-02T12:15:02.223Z,97397.47
2018-05-02T12:17:28.465Z,97394.29
2018-05-02T12:19:54.819Z,97393.73
2018-05-02T12:22:21.083Z,97394.64
2018-05-02T12:24:47.352Z,97391.27
2018-05-02T12:27:13.674Z,97391.14
2018-05-02T12:29:39.906Z,97394.05
2018-05-02T12:32:06.139Z,97390.61
2018-05-02T12:34:32.425Z,97384.38
2018-05-02T12:36:58.662Z,97386.09
2018-05-02T12:39:24.923Z,97382.95
2018-05-02T12:41:51.215Z,97374.19
2018-05-02T12:44:17.467Z,97369.64
2018-05-02T12:46:43.724Z,97366.31
2018-05-02T12:49:09.986Z,97357.38
2018-05-02T12:51:36.231Z,97359.05
2018-05-02T12:54:02.512Z,97352.25
2018-05-02T12:56:28.803Z,97354.45
2018-05-02T12:58:55.035Z,97349.85
2018-05-02T13:01:21.311Z,97343.98
2018-05-02T13:03:47.590Z,97347.63
2018-05-02T13:06:13.830Z,97346.73
2018-05-02T13:08:40.067Z,97343.26
2018-05-02T13:11:06.355Z,97334.77
2018-05-02T13:13:32.582Z,97340.84
2018-05-02T13:15:58.849Z,97332.30
2018-05-02T13:18:25.142Z,97332.52
2018-05-02T13:20:51.427Z,97330.54
2018-05-02T13:23:17.718Z,97323.58
2018-05-02T13:25:43.938Z,97317.16
2018-05-02T13:28:10.170Z,97319.50
2018-05-02T13:30:36.416Z,97311.78
2018-05-02T13:33:02.802Z,97309.30
2018-05-02T13:35:28.975Z,97306.25
2018-05-02T13:37:55.219Z,97302.54
2018-05-02T13:40:21.487Z,97294.16
2018-05-02T13:42:47.727Z,97297.39
2018-05-02T13:45:14.035Z,97291.07
2018-05-02T13:47:40.328Z,97287.91
2018-05-02T13:50:06.572Z,97290.27
2018-05-02T13:52:32.838Z,97286.24
2018-05-02T13:54:59.087Z,97283.44
2018-05-02T13:57:25.355Z,97291.19
2018-05-02T13:59:51.622Z,97290.96
2018-05-02T14:02:17.906Z,97287.87
2018-05-02T14:04:44.186Z,97286.58
2018-05-02T14:07:10.431Z,97285.44
2018-05-02T14:09:36.775Z,97291.79
2018-05-02T14:12:03.081Z,97283.17
2018-05-02T14:14:29.334Z,97267.44
2018-05-02T14:16:56.097Z,97266.89
2018-05-02T14:19:22.330Z,97258.84
2018-05-02T14:21:48.586Z,97259.50
2018-05-02T14:24:14.867Z,97259.25
2018-05-02T14:26:41.144Z,97250.48
2018-05-02T14:29:07.383Z,97253.23
2018-05-02T14:31:33.648Z,97256.02
2018-05-02T14:33:59.889Z,97257.64
2018-05-02T14:36:26.176Z,97253.57
2018-05-02T14:38:52.445Z,97257.82
2018-05-02T14:41:18.686Z,97268.33
2018-05-02T14:43:44.922Z,97263.72
2018-05-02T14:46:11.222Z,97260.73
2018-05-02T14:48:37.464Z,97265.72
2018-05-02T14:51:03.699Z,97267.09
2018-05-02T14:53:29.995Z,97266.53
2018-05-02T14:55:56.235Z,97268.69
2018-05-02T14:58:22.470Z,97263.92
2018-05-02T15:00:48.798Z,97257.18
2018-05-02T15:03:15.027Z,97267.11
2018-05-02T15:05:41.327Z,97255.25
2018-05-02T15:08:07.603Z,97252.13
2018-05-02T15:10:33.842Z,97259.97
2018-05-02T15:13:00.083Z,97265.33
2018-05-02T15:15:26.394Z,97255.78
2018-05-02T15:17:52.756Z,97258.69
2018-05-02T15:20:18.968Z,97255.99
2018-05-02T15:22:45.259Z,97254.75
2018-05-02T15:25:11.510Z,97251.97
2018-05-02T15:27:37.750Z,97252.77
2018-05-02T15:30:04.042Z,97254.39
2018-05-02T15:32:30.345Z,97255.55
2018-05-02T15:34:56.598Z,97249.55
2018-05-02T15:37:22.878Z,97243.46
2018-05-02T15:39:49.114Z,97242.36
2018-05-02T15:42:15.354Z,97240.91
2018-05-02T15:44:41.648Z,97233.11
2018-05-02T15:47:07.918Z,97230.36
2018-05-02T15:49:34.186Z,97225.13
2018-05-02T15:52:00.534Z,97226.73
2018-05-02T15:54:26.734Z,97220.52
2018-05-02T15:56:53.017Z,97219.37
2018-05-02T15:59:19.306Z,97208.76
2018-05-02T16:01:45.606Z,97212.62
2018-05-02T16:04:11.850Z,97211.11
2018-05-02T16:06:38.129Z,97209.70
2018-05-02T16:09:05.322Z,97217.48
2018-05-02T16:11:31.562Z,97208.47
2018-05-02T16:13:57.830Z,97207.70
2018-05-02T16:16:24.077Z,97210.73
2018-05-02T16:18:50.335Z,97206.02
2018-05-02T16:21:16.604Z,97208.19
2018-05-02T16:23:42.875Z,97216.06
2018-05-02T16:26:09.127Z,97217.46
2018-05-02T16:28:35.394Z,97220.63
2018-05-02T16:31:01.636Z,97222.05
2018-05-02T16:33:27.897Z,97221.41
2018-05-02T16:35:54.167Z,97221.20
2018-05-02T16:38:20.398Z,97219.48
2018-05-02T16:40:46.636Z,97214.36
2018-05-02T16:43:12.999Z,97215.49
2018-05-02T16:45:39.234Z,97212.40
2018-05-02T16:48:05.496Z,97207.10
2018-05-02T16:50:31.779Z,97213.02
2018-05-02T16:52:58.023Z,97213.88
2018-05-02T16:55:24.278Z,97205.47
2018-05-02T16:57:50.559Z,97207.42
2018-05-02T17:00:16.839Z,97213.64
2018-05-02T17:02:43.093Z,97206.88
2018-05-02T17:05:09.358Z,97208.42
2018-05-02T17:07:35.619Z,97212.52
2018-05-02T17:10:01.855Z,97209.56
2018-05-02T17:12:28.147Z,97213.36
2018-05-02T17:14:54.383Z,97209.45
2018-05-02T17:17:20.610Z,97207.89
2018-05-02T17:19:46.938Z,97208.55
2018-05-02T17:22:13.319Z,97205.52
2018-05-02T17:24:39.471Z,97216.70
2018-05-02T17:27:05.791Z,97218.39
2018-05-02T17:29:32.023Z,97225.05
2018-05-02T17:31:58.255Z,97228.49
2018-05-02T17:34:24.522Z,97229.71
2018-05-02T17:36:50.758Z,97219.98
2018-05-02T17:39:16.996Z,97223.31
2018-05-02T17:41:43.270Z,97226.65
2018-05-02T17:44:09.519Z,97227.59
2018-05-02T17:46:35.747Z,97223.61
2018-05-02T17:49:02.026Z,97222.27
2018-05-02T17:51:28.266Z,97223.50
2018-05-02T17:53:54.522Z,97219.30
2018-05-02T17:56:20.777Z,97226.66
2018-05-02T17:58:47.083Z,97226.11
2018-05-02T18:01:13.338Z,97229.38
2018-05-02T18:03:39.669Z,97229.19
2018-05-02T18:06:05.917Z,97233.30
2018-05-02T18:08:32.211Z,97226.77
2018-05-02T18:10:58.498Z,97227.30
2018-05-02T18:13:24.722Z,97230.03
2018-05-02T18:15:50.970Z,97231.96
2018-05-02T18:18:17.226Z,97232.23
2018-05-02T18:20:43.458Z,97239.79
2018-05-02T18:23:09.683Z,97232.88
2018-05-02T18:25:35.958Z,97236.36
2018-05-02T18:28:02.271Z,97235.02
2018-05-02T18:30:28.424Z,97233.28
2018-05-02T18:32:54.751Z,97231.44
2018-05-02T18:35:21.031Z,97229.50
2018-05-02T18:37:47.259Z,97230.47
2018-05-02T18:40:13.559Z,97234.42
2018-05-02T18:42:39.794Z,97235.63
2018-05-02T18:45:06.066Z,97233.38
2018-05-02T18:47:32.323Z,97238.48
2018-05-02T18:49:58.546Z,97237.94
2018-05-02T18:52:24.779Z,97240.97
2018-05-02T18:54:51.063Z,97241.37
2018-05-02T18:57:17.310Z,97238.98
2018-05-02T18:59:43.551Z,97244.35
2018-05-02T19:02:10.202Z,97247.09
2018-05-02T19:04:36.462Z,97246.56
2018-05-02T19:07:03.846Z,97249.53
2018-05-02T19:09:30.115Z,97257.33
2018-05-02T19:11:56.341Z,97259.13
2018-05-02T19:14:22.575Z,97262.50
2018-05-02T19:16:48.846Z,97263.45
2018-05-02T19:19:21.014Z,97260.80
2018-05-02T19:21:47.246Z,97252.47
2018-05-02T19:24:13.523Z,97250.82
2018-05-02T19:26:39.758Z,97256.75
2018-05-02T19:29:06.007Z,97256.13
2018-05-02T19:31:38.367Z,97256.45
2018-05-02T19:34:04.639Z,97258.92
2018-05-02T19:36:30.866Z,97262.09
2018-05-02T19:38:57.118Z,97267.38
2018-05-02T19:41:29.503Z,97268.55
2018-05-02T19:44:01.783Z,97273.06
2018-05-02T19:46:28.127Z,97265.62
2018-05-02T19:48:54.411Z,97263.63
2018-05-02T19:51:26.794Z,97260.14
2018-05-02T19:53:53.060Z,97260.52
2018-05-02T19:56:19.296Z,97261.17
2018-05-02T19:58:45.597Z,97260.47
2018-05-02T20:01:17.835Z,97266.73
2018-05-02T20:03:44.091Z,97253.80
2018-05-02T20:06:10.343Z,97258.05
2018-05-02T20:08:42.562Z,97256.27
2018-05-02T20:11:14.908Z,97255.06
2018-05-02T20:13:47.356Z,97246.23
2018-05-02T20:16:13.591Z,97244.86
2018-05-02T20:18:39.966Z,97235.47
2018-05-02T20:21:06.226Z,97241.11
2018-05-02T20:23:32.461Z,97244.88
2018-05-02T20:25:58.738Z,97250.52
2018-05-02T20:28:24.987Z,97248.11
2018-05-02T20:30:51.262Z,97249.89
2018-05-02T20:33:17.575Z,97257.42
2018-05-02T20:35:43.818Z,97253.88
2018-05-02T20:38:10.066Z,97257.84
2018-05-02T20:40:36.374Z,97252.44
2018-05-02T20:43:02.615Z,97250.41
2018-05-02T20:45:28.834Z,97249.56
2018-05-02T20:47:55.091Z,97245.12
2018-05-02T20:50:21.334Z,97238.82
2018-05-02T20:52:47.571Z,97240.98
2018-05-02T20:55:13.859Z,97236.08
2018-05-02T20:57:40.066Z,97229.36
2018-05-02T21:00:06.307Z,97228.52
2018-05-02T21:02:32.611Z,97236.54
2018-05-02T21:04:58.851Z,97249.98
2018-05-02T21:07:25.102Z,97244.91
2018-05-02T21:09:51.364Z,97238.56
2018-05-02T21:12:17.601Z,97239.28
2018-05-02T21:14:43.839Z,97244.13
2018-05-02T21:17:10.107Z,97244.80
2018-05-02T21:19:36.346Z,97232.00
2018-05-02T21:22:02.596Z,97218.59
2018-05-02T21:24:28.850Z,97222.56
2018-05-02T21:26:55.115Z,97225.57
2018-05-02T21:29:21.348Z,97230.00
2018-05-02T21:31:47.620Z,97230.01
2018-05-02T21:34:13.877Z,97223.67
2018-05-02T21:36:40.118Z,97217.52
2018-05-02T21:39:06.393Z,97211.44
2018-05-02T21:41:32.639Z,97221.95
2018-05-02T21:43:58.866Z,97219.20
2018-05-02T21:46:25.130Z,97228.73
2018-05-02T21:48:51.387Z,97226.33
2018-05-02T21:51:17.633Z,97215.45
2018-05-02T21:53:43.895Z,97217.23
2018-05-02T21:56:10.190Z,97212.69
2018-05-02T21:58:36.536Z,97209.38
2018-05-02T22:01:02.889Z,97189.28
2018-05-02T22:03:29.102Z,97185.77
2018-05-02T22:05:55.410Z,97183.48
2018-05-02T22:08:21.662Z,97191.74
2018-05-02T22:10:47.961Z,97194.53
2018-05-02T22:13:14.209Z,97208.19
2018-05-02T22:15:40.467Z,97214.14
2018-05-02T22:18:06.771Z,97207.42
2018-05-02T22:20:32.989Z,97224.92
2018-05-02T22:22:59.241Z,97229.45
2018-05-02T22:25:25.507Z,97229.86
2018-05-02T22:27:51.787Z,97237.08
2018-05-02T22:30:18.038Z,97234.42
2018-05-02T22:32:44.350Z,97235.81
2018-05-02T22:35:10.565Z,97226.84
2018-05-02T22:37:36.831Z,97225.32
2018-05-02T22:40:03.145Z,97207.59
2018-05-02T22:42:29.421Z,97189.36
2018-05-02T22:44:55.727Z,97197.99
2018-05-02T22:47:22.021Z,97219.37
2018-05-02T22:49:48.261Z,97226.34
2018-05-02T22:52:14.546Z,97243.32
2018-05-02T22:54:40.787Z,97253.17
2018-05-02T22:57:07.037Z,97257.61
2018-05-02T22:59:33.306Z,97259.63
2018-05-02T23:01:59.599Z,97251.62
2018-05-02T23:04:25.830Z,97243.74
2018-05-02T23:06:52.094Z,97248.69
2018-05-02T23:09:18.383Z,97242.23
2018-05-02T23:11:44.621Z,97248.77
2018-05-02T23:14:10.878Z,97246.91
2018-05-02T23:16:37.116Z,97241.84
2018-05-02T23:19:03.454Z,97245.02
2018-05-02T23:21:30.540Z,97245.38
2018-05-02T23:23:56.791Z,97251.05
2018-05-02T23:26:23.022Z,97255.84
2018-05-02T23:28:49.283Z,97256.09
2018-05-02T23:31:15.595Z,97256.95
2018-05-02T23:33:41.910Z,97260.22
2018-05-02T23:36:08.173Z,97270.34
2018-05-02T23:38:34.470Z,97280.59
2018-05-02T23:41:00.715Z,97283.61
2018-05-02T23:43:27.072Z,97289.95
2018-05-02T23:45:53.370Z,97279.18
2018-05-02T23:48:19.646Z,97290.48
2018-05-02T23:50:45.954Z,97284.28
2018-05-02T23:53:12.237Z,97281.61
2018-05-02T23:55:38.468Z,97273.60
2018-05-02T23:58:04.774Z,97275.13
